Time;durP1;ratioP1;P1;durP2;ratioP2;P2;SDS_P1;SDS_P2;PMS_P1;PMS_P2;Temp;Humidity;BMP_temperature;BMP_pressure;BME280_temperature;BME280_humidity;BME280_pressure;Samples;Min_cycle;Max_cycle;Signal;HPM_P1;HPM_P2
2021/09/03 00:01:09;;;;;;;17.93;11.30;;;14.60;99.90;;;;;;5069373;28;20744;-58
2021/09/03 00:03:35;;;;;;;16.70;11.85;;;14.50;99.90;;;;;;5071975;28;20396;-58
2021/09/03 00:06:01;;;;;;;18.33;11.00;;;14.50;99.90;;;;;;5073134;28;20392;-58
2021/09/03 00:08:27;;;;;;;17.35;11.05;;;14.60;99.90;;;;;;5072357;28;20378;-58
2021/09/03 00:10:52;;;;;;;21.40;12.73;;;14.40;99.90;;;;;;5072793;28;20445;-58
2021/09/03 00:13:18;;;;;;;19.92;12.02;;;14.40;99.90;;;;;;5072780;28;20826;-58
2021/09/03 00:15:44;;;;;;;19.00;12.07;;;14.30;99.90;;;;;;5072483;28;20782;-58
2021/09/03 00:18:10;;;;;;;17.27;11.40;;;14.30;99.90;;;;;;5073038;28;20416;-58
2021/09/03 00:20:35;;;;;;;17.90;11.80;;;14.20;99.90;;;;;;5072402;28;20463;-58
2021/09/03 00:23:01;;;;;;;16.20;11.10;;;14.10;99.90;;;;;;5072622;28;20901;-57
2021/09/03 00:25:27;;;;;;;17.25;11.30;;;14.10;99.90;;;;;;5071814;28;20815;-58
2021/09/03 00:27:53;;;;;;;18.17;10.73;;;14.10;99.90;;;;;;5072693;28;20380;-58
2021/09/03 00:30:18;;;;;;;17.63;11.32;;;14.00;99.90;;;;;;5071151;28;20379;-58
2021/09/03 00:32:44;;;;;;;18.63;11.07;;;14.00;99.90;;;;;;5072282;28;20411;-58
2021/09/03 00:35:10;;;;;;;19.13;11.57;;;13.90;99.90;;;;;;5072752;28;20466;-57
2021/09/03 00:37:36;;;;;;;18.20;11.43;;;13.90;99.90;;;;;;5071812;28;20383;-57
2021/09/03 00:40:03;;;;;;;19.10;12.30;;;13.80;99.90;;;;;;5072375;28;20384;-58
2021/09/03 00:42:30;;;;;;;20.17;12.95;;;13.90;99.90;;;;;;5071557;28;20384;-57
2021/09/03 00:44:56;;;;;;;19.00;11.50;;;13.80;99.90;;;;;;5072546;28;20435;-57
2021/09/03 00:47:22;;;;;;;18.90;11.80;;;13.80;99.90;;;;;;5071825;28;20396;-57
2021/09/03 00:49:48;;;;;;;17.23;11.82;;;13.70;99.90;;;;;;5072037;28;20528;-58
2021/09/03 00:52:14;;;;;;;18.70;12.53;;;13.70;99.90;;;;;;5072529;28;20475;-58
2021/09/03 00:54:40;;;;;;;20.45;12.50;;;13.80;99.90;;;;;;5071593;28;20445;-58
2021/09/03 00:57:06;;;;;;;17.75;11.52;;;13.80;99.90;;;;;;5072135;28;20368;-58
2021/09/03 00:59:32;;;;;;;22.17;11.55;;;13.90;99.90;;;;;;5071581;28;20384;-58
2021/09/03 01:01:58;;;;;;;18.80;12.57;;;13.90;99.90;;;;;;5072233;28;20379;-58
2021/09/03 01:04:24;;;;;;;19.40;10.93;;;13.80;99.90;;;;;;5071313;28;20761;-58
2021/09/03 01:06:49;;;;;;;19.73;12.02;;;13.80;99.90;;;;;;5070674;28;20719;-58
2021/09/03 01:09:15;;;;;;;18.58;11.98;;;13.70;99.90;;;;;;5071949;28;20491;-58
2021/09/03 01:11:41;;;;;;;20.37;12.70;;;13.60;99.90;;;;;;5070840;28;20408;-58
2021/09/03 01:14:06;;;;;;;22.02;13.52;;;13.60;99.90;;;;;;5071580;28;20415;-59
2021/09/03 01:16:32;;;;;;;20.90;13.48;;;13.70;99.90;;;;;;5071285;28;20484;-58
2021/09/03 01:18:58;;;;;;;19.70;12.73;;;13.70;99.90;;;;;;5072135;28;20391;-59
2021/09/03 01:21:24;;;;;;;20.55;13.32;;;13.70;99.90;;;;;;5071142;28;20415;-58
2021/09/03 01:23:49;;;;;;;21.50;13.60;;;13.70;99.90;;;;;;5071812;28;20848;-59
2021/09/03 01:26:15;;;;;;;20.15;13.65;;;13.60;99.90;;;;;;5072099;28;20750;-59
2021/09/03 01:28:41;;;;;;;19.83;12.97;;;13.60;99.90;;;;;;5071064;28;20376;-59
2021/09/03 01:31:06;;;;;;;19.75;12.48;;;13.60;99.90;;;;;;5071995;28;20380;-58
2021/09/03 01:33:32;;;;;;;20.10;11.70;;;13.60;99.90;;;;;;5071078;28;20384;-58
2021/09/03 01:35:58;;;;;;;18.67;11.65;;;13.40;99.90;;;;;;5071943;28;20455;-58
2021/09/03 01:38:24;;;;;;;16.27;11.20;;;13.40;99.90;;;;;;5070749;28;20372;-58
2021/09/03 01:40:50;;;;;;;19.23;12.10;;;13.30;99.90;;;;;;5071682;28;20796;-58
2021/09/03 01:43:15;;;;;;;20.23;12.93;;;13.20;99.90;;;;;;5071483;28;20403;-58
2021/09/03 01:45:41;;;;;;;19.30;11.48;;;13.10;99.90;;;;;;5071198;28;20467;-58
2021/09/03 01:48:07;;;;;;;19.20;11.53;;;13.10;99.90;;;;;;5071339;28;20391;-58
2021/09/03 01:50:33;;;;;;;18.55;11.90;;;13.00;99.90;;;;;;5070500;28;20380;-57
2021/09/03 01:52:59;;;;;;;22.70;12.87;;;13.00;99.90;;;;;;5071732;28;20425;-58
2021/09/03 01:55:24;;;;;;;21.90;13.45;;;13.10;99.90;;;;;;5070934;28;20411;-58
2021/09/03 01:57:50;;;;;;;20.57;12.90;;;13.00;99.90;;;;;;5071754;28;20391;-57
2021/09/03 02:00:16;;;;;;;23.67;13.70;;;12.90;99.90;;;;;;5071584;28;20412;-58
2021/09/03 02:02:42;;;;;;;20.38;12.48;;;12.90;99.90;;;;;;5070433;28;20752;-57
2021/09/03 02:05:08;;;;;;;20.45;12.45;;;12.90;99.90;;;;;;5070875;28;20384;-58
2021/09/03 02:07:34;;;;;;;23.05;13.07;;;12.90;99.90;;;;;;5070214;28;20388;-58
2021/09/03 02:10:00;;;;;;;22.05;13.40;;;12.90;99.90;;;;;;5070858;28;20384;-57
2021/09/03 02:12:25;;;;;;;20.47;13.63;;;12.90;99.90;;;;;;5069951;28;20884;-58
2021/09/03 02:14:51;;;;;;;21.73;13.00;;;12.90;99.90;;;;;;5070526;28;20483;-57
2021/09/03 02:17:17;;;;;;;19.92;12.60;;;12.80;99.90;;;;;;5070243;28;20412;-57
2021/09/03 02:19:43;;;;;;;22.53;13.70;;;12.80;99.90;;;;;;5070065;28;20549;-58
2021/09/03 02:22:08;;;;;;;22.92;13.63;;;12.90;99.90;;;;;;5070662;28;20387;-58
2021/09/03 02:24:34;;;;;;;23.30;14.13;;;12.90;99.90;;;;;;5069707;28;20398;-58
2021/09/03 02:27:00;;;;;;;23.70;13.25;;;12.90;99.90;;;;;;5069564;28;20384;-57
2021/09/03 02:29:26;;;;;;;24.60;15.67;;;13.00;99.90;;;;;;5069628;28;20501;-57
2021/09/03 02:31:54;;;;;;;23.33;14.60;;;13.00;99.90;;;;;;5070435;28;20408;-57
2021/09/03 02:34:20;;;;;;;21.70;14.00;;;13.00;99.90;;;;;;5070157;28;20402;-58
2021/09/03 02:36:45;;;;;;;22.23;14.73;;;12.90;99.90;;;;;;5069544;28;20376;-58
2021/09/03 02:39:11;;;;;;;24.90;14.57;;;12.80;99.90;;;;;;5070145;28;20463;-58
2021/09/03 02:41:36;;;;;;;24.33;14.50;;;12.80;99.90;;;;;;5069168;28;20495;-57
2021/09/03 02:44:02;;;;;;;23.85;14.98;;;12.90;99.90;;;;;;5069924;28;20470;-58
2021/09/03 02:46:28;;;;;;;24.53;15.20;;;12.80;99.90;;;;;;5068783;28;20407;-57
2021/09/03 02:48:53;;;;;;;27.67;15.10;;;12.80;99.90;;;;;;5069252;28;20388;-58
2021/09/03 02:51:19;;;;;;;26.07;15.33;;;12.90;99.90;;;;;;5070119;28;20399;-58
2021/09/03 02:53:45;;;;;;;24.63;14.30;;;12.80;99.90;;;;;;5067878;28;20896;-58
2021/09/03 02:56:10;;;;;;;24.35;15.38;;;12.70;99.90;;;;;;5069734;28;20384;-57
2021/09/03 02:58:36;;;;;;;22.73;14.63;;;12.70;99.90;;;;;;5069032;28;20380;-58
2021/09/03 03:01:01;;;;;;;24.07;14.03;;;12.80;99.90;;;;;;5069665;28;20948;-58
2021/09/03 03:03:27;;;;;;;22.05;13.45;;;12.70;99.90;;;;;;5069065;28;20399;-57
2021/09/03 03:05:53;;;;;;;22.07;13.43;;;12.70;99.90;;;;;;5069684;28;20390;-57
2021/09/03 03:08:18;;;;;;;27.00;14.00;;;12.60;99.90;;;;;;5069263;28;20750;-58
2021/09/03 03:10:44;;;;;;;20.55;12.93;;;12.60;99.90;;;;;;5068909;28;21032;-58
2021/09/03 03:13:20;;;;;;;22.30;11.97;;;12.50;99.90;;;;;;5068444;28;20855;-57
2021/09/03 03:15:47;;;;;;;18.42;12.57;;;12.40;99.90;;;;;;5069094;28;20380;-58
2021/09/03 03:18:12;;;;;;;21.27;12.80;;;12.40;99.90;;;;;;5069144;28;20411;-58
2021/09/03 03:20:38;;;;;;;20.05;12.00;;;12.30;99.90;;;;;;5068982;28;20391;-58
2021/09/03 03:23:04;;;;;;;20.83;12.20;;;12.10;99.90;;;;;;5069781;28;20407;-57
2021/09/03 03:25:29;;;;;;;23.25;13.52;;;12.00;99.90;;;;;;5068913;28;20852;-58
2021/09/03 03:27:55;;;;;;;22.67;13.83;;;12.00;99.90;;;;;;5069685;28;20868;-58
2021/09/03 03:30:20;;;;;;;22.27;12.83;;;12.00;99.90;;;;;;5069720;28;20388;-57
2021/09/03 03:32:46;;;;;;;21.15;13.60;;;11.90;99.90;;;;;;5068827;28;20872;-57
2021/09/03 03:35:12;;;;;;;21.47;12.97;;;11.90;99.90;;;;;;5069366;28;20383;-57
2021/09/03 03:37:38;;;;;;;21.13;12.70;;;11.90;99.90;;;;;;5068095;28;20386;-57
2021/09/03 03:40:04;;;;;;;21.97;13.40;;;11.90;99.90;;;;;;5069350;28;20376;-58
2021/09/03 03:42:30;;;;;;;21.63;12.60;;;11.80;99.90;;;;;;5068816;28;20553;-57
2021/09/03 03:44:55;;;;;;;20.60;13.25;;;11.70;99.90;;;;;;5069078;28;20406;-58
2021/09/03 03:47:21;;;;;;;22.80;13.30;;;11.70;99.90;;;;;;5069361;28;20888;-57
2021/09/03 03:49:46;;;;;;;26.00;14.50;;;11.70;99.90;;;;;;5068816;28;20436;-56
2021/09/03 03:52:12;;;;;;;25.30;14.43;;;10.10;99.90;;;;;;5069522;28;20384;-58
2021/09/03 03:54:38;;;;;;;26.63;14.47;;;11.70;99.90;;;;;;5068453;28;20516;-57
2021/09/03 03:57:03;;;;;;;23.80;14.13;;;11.60;99.90;;;;;;5069368;28;20787;-57
2021/09/03 03:59:30;;;;;;;22.73;14.15;;;11.60;99.90;;;;;;5068581;28;20699;-57
2021/09/03 04:01:56;;;;;;;21.60;13.00;;;11.70;99.90;;;;;;5067931;28;20433;-57
2021/09/03 04:04:21;;;;;;;21.45;13.13;;;11.80;99.90;;;;;;5069222;28;20502;-57
2021/09/03 04:06:47;;;;;;;21.67;13.27;;;11.80;99.90;;;;;;5068218;28;20407;-57
2021/09/03 04:09:13;;;;;;;25.48;13.25;;;11.80;99.90;;;;;;5069234;28;20375;-57
2021/09/03 04:11:41;;;;;;;19.97;13.00;;;11.70;99.90;;;;;;5068351;28;20376;-57
2021/09/03 04:14:07;;;;;;;19.40;11.90;;;11.70;99.90;;;;;;5068929;28;20393;-57
2021/09/03 04:16:32;;;;;;;21.38;12.82;;;11.70;99.90;;;;;;5068169;28;20403;-56
2021/09/03 04:18:58;;;;;;;20.50;12.70;;;11.70;99.90;;;;;;5068986;28;20482;-57
2021/09/03 04:21:24;;;;;;;19.70;11.27;;;11.70;99.90;;;;;;5068516;28;20383;-56
2021/09/03 04:23:49;;;;;;;18.17;12.13;;;11.70;99.90;;;;;;5068275;28;20411;-58
2021/09/03 04:26:15;;;;;;;21.80;11.97;;;11.70;99.90;;;;;;5069215;28;20396;-57
2021/09/03 04:28:41;;;;;;;19.70;12.65;;;11.50;99.90;;;;;;5068015;28;20380;-58
2021/09/03 04:31:06;;;;;;;20.57;12.10;;;11.50;99.90;;;;;;5069285;28;20866;-58
2021/09/03 04:33:32;;;;;;;17.88;11.90;;;11.70;99.90;;;;;;5067994;28;20479;-57
2021/09/03 04:35:57;;;;;;;21.95;11.98;;;11.60;99.90;;;;;;5068943;28;20392;-57
2021/09/03 04:38:23;;;;;;;21.20;12.60;;;11.50;99.90;;;;;;5068629;28;20383;-58
2021/09/03 04:40:49;;;;;;;23.30;12.80;;;11.60;99.90;;;;;;5067002;28;20415;-58
2021/09/03 04:43:14;;;;;;;24.70;13.73;;;11.70;99.90;;;;;;5068394;28;20411;-57
2021/09/03 04:45:40;;;;;;;26.73;14.37;;;11.60;99.90;;;;;;5067448;28;20753;-58
2021/09/03 04:48:06;;;;;;;20.45;13.13;;;11.60;99.90;;;;;;5068730;28;20387;-58
2021/09/03 04:50:32;;;;;;;21.50;12.60;;;11.60;99.90;;;;;;5071024;28;20379;-57
2021/09/03 04:52:57;;;;;;;19.80;11.70;;;11.60;99.90;;;;;;5072358;28;20428;-57
2021/09/03 04:55:23;;;;;;;23.63;12.57;;;11.60;99.90;;;;;;5072224;28;20387;-57
2021/09/03 04:57:48;;;;;;;20.90;12.20;;;11.50;99.90;;;;;;5071320;28;20391;-58
2021/09/03 05:00:18;;;;;;;23.03;12.03;;;11.50;99.90;;;;;;5072080;28;20824;-59
2021/09/03 05:02:44;;;;;;;20.40;11.65;;;11.60;99.90;;;;;;5071384;28;20445;-58
2021/09/03 05:05:10;;;;;;;19.98;12.57;;;11.60;99.90;;;;;;5071894;28;20506;-58
2021/09/03 05:07:36;;;;;;;19.38;11.65;;;11.70;99.90;;;;;;5070983;28;20380;-58
2021/09/03 05:10:04;;;;;;;20.95;12.88;;;11.60;99.90;;;;;;5072046;28;20880;-58
2021/09/03 05:12:30;;;;;;;21.63;12.50;;;11.60;99.90;;;;;;5071202;28;20376;-58
2021/09/03 05:14:55;;;;;;;19.30;10.85;;;11.70;99.90;;;;;;5072078;28;20729;-58
2021/09/03 05:17:21;;;;;;;19.43;11.27;;;11.80;99.90;;;;;;5071412;28;20431;-57
2021/09/03 05:19:47;;;;;;;19.30;11.80;;;11.80;99.90;;;;;;5070958;28;20399;-58
2021/09/03 05:22:13;;;;;;;16.93;11.33;;;11.80;99.90;;;;;;5071704;28;20418;-58
2021/09/03 05:24:39;;;;;;;18.80;11.77;;;11.80;99.90;;;;;;5070658;28;20785;-58
2021/09/03 05:27:04;;;;;;;20.27;11.87;;;11.80;99.90;;;;;;5071410;28;20433;-58
2021/09/03 05:29:31;;;;;;;20.20;11.60;;;11.90;99.90;;;;;;5070706;28;20384;-58
2021/09/03 05:31:57;;;;;;;19.83;12.15;;;11.90;99.90;;;;;;5071431;28;20504;-58
2021/09/03 05:34:22;;;;;;;19.67;12.10;;;12.00;99.90;;;;;;5071284;28;20415;-58
2021/09/03 05:36:48;;;;;;;18.53;11.03;;;12.20;99.90;;;;;;5070512;28;20383;-59
2021/09/03 05:39:14;;;;;;;17.50;10.70;;;12.40;99.90;;;;;;5071238;28;20479;-59
2021/09/03 05:41:40;;;;;;;18.50;11.60;;;12.50;99.90;;;;;;5070554;28;20379;-58
2021/09/03 05:44:05;;;;;;;18.42;11.43;;;12.60;99.90;;;;;;5070472;28;20415;-58
2021/09/03 05:46:31;;;;;;;17.87;11.13;;;12.70;99.90;;;;;;5069180;28;20746;-58
2021/09/03 05:48:57;;;;;;;16.70;11.00;;;12.90;99.90;;;;;;5064958;28;20404;-58
2021/09/03 05:51:23;;;;;;;17.67;10.40;;;13.00;99.90;;;;;;5067639;28;20399;-58
2021/09/03 05:53:49;;;;;;;19.70;11.90;;;13.00;99.90;;;;;;5070115;28;20444;-59
2021/09/03 05:56:14;;;;;;;21.77;11.90;;;13.10;99.90;;;;;;5070090;28;20452;-59
2021/09/03 05:58:40;;;;;;;20.20;13.50;;;13.20;99.90;;;;;;5069946;28;20390;-58
2021/09/03 06:01:05;;;;;;;22.75;12.13;;;13.30;99.90;;;;;;5070326;28;20388;-58
2021/09/03 06:03:31;;;;;;;19.43;11.57;;;13.60;99.90;;;;;;5070137;28;20403;-58
2021/09/03 06:05:57;;;;;;;16.08;9.88;;;14.40;99.90;;;;;;5069612;28;20402;-56
2021/09/03 06:08:23;;;;;;;16.35;9.02;;;16.00;99.90;;;;;;5070458;28;20376;-59
2021/09/03 06:10:49;;;;;;;14.90;9.20;;;17.70;99.90;;;;;;5067872;28;20433;-56
2021/09/03 06:13:14;;;;;;;14.32;8.95;;;19.40;99.90;;;;;;5069940;28;20383;-57
2021/09/03 06:15:40;;;;;;;13.30;8.23;;;20.80;99.90;;;;;;5069354;28;20380;-58
2021/09/03 06:18:05;;;;;;;13.90;8.70;;;22.00;99.90;;;;;;5069950;28;20448;-57
2021/09/03 06:20:31;;;;;;;14.23;9.13;;;22.90;99.90;;;;;;5069593;28;20410;-60
2021/09/03 06:22:57;;;;;;;13.80;9.45;;;23.80;99.90;;;;;;5069577;28;20442;-57
2021/09/03 06:25:23;;;;;;;15.60;9.10;;;25.00;99.90;;;;;;5069753;28;20444;-56
2021/09/03 06:27:48;;;;;;;16.80;13.67;;;26.00;99.50;;;;;;5069013;28;20376;-57
2021/09/03 06:30:15;;;;;;;18.48;15.18;;;26.50;96.00;;;;;;5069935;28;20409;-57
2021/09/03 06:32:41;;;;;;;16.70;14.85;;;26.50;96.00;;;;;;5068567;28;20857;-59
2021/09/03 06:35:07;;;;;;;16.13;14.43;;;26.40;95.30;;;;;;5069338;28;20436;-58
2021/09/03 06:37:33;;;;;;;16.50;14.80;;;27.00;93.30;;;;;;5068528;28;20473;-58
2021/09/03 06:39:59;;;;;;;16.80;14.60;;;26.90;93.30;;;;;;5069496;28;20391;-58
2021/09/03 06:42:28;;;;;;;17.63;15.73;;;27.00;93.10;;;;;;5069526;28;20391;-58
2021/09/03 06:44:54;;;;;;;16.97;13.60;;;27.40;91.40;;;;;;5069077;28;20399;-58
2021/09/03 06:47:19;;;;;;;17.10;14.87;;;27.40;91.70;;;;;;5069511;28;20541;-57
2021/09/03 06:49:45;;;;;;;16.00;11.30;;;28.20;89.10;;;;;;5069248;28;20387;-58
2021/09/03 06:52:13;;;;;;;13.63;9.50;;;28.50;85.00;;;;;;5068979;28;20391;-58
2021/09/03 06:54:39;;;;;;;13.30;9.38;;;28.60;85.80;;;;;;5067680;28;20394;-58
2021/09/03 06:57:06;;;;;;;12.02;8.02;;;28.40;84.40;;;;;;5067953;28;20814;-58
2021/09/03 06:59:32;;;;;;;14.10;9.43;;;28.50;82.30;;;;;;5068801;28;20469;-58
2021/09/03 07:01:58;;;;;;;13.68;8.70;;;28.30;82.40;;;;;;5069690;28;20399;-59
2021/09/03 07:04:24;;;;;;;13.00;8.48;;;28.30;83.50;;;;;;5069344;28;20814;-58
2021/09/03 07:06:50;;;;;;;12.30;8.20;;;28.30;80.70;;;;;;5068661;28;20376;-59
2021/09/03 07:09:16;;;;;;;14.65;13.15;;;28.30;80.30;;;;;;5069460;28;20475;-59
2021/09/03 07:11:42;;;;;;;12.27;9.40;;;28.00;80.10;;;;;;5067625;28;20888;-58
2021/09/03 07:14:08;;;;;;;13.70;9.10;;;28.00;80.00;;;;;;5068937;28;20380;-59
2021/09/03 07:16:33;;;;;;;11.32;7.95;;;28.70;80.20;;;;;;5067864;28;20407;-59
2021/09/03 07:19:02;;;;;;;12.40;8.20;;;28.40;80.40;;;;;;5069687;28;20384;-56
2021/09/03 07:21:30;;;;;;;12.40;8.50;;;28.60;78.20;;;;;;5068925;28;20379;-57
2021/09/03 07:23:56;;;;;;;12.77;8.45;;;28.90;77.00;;;;;;5069080;28;20469;-56
2021/09/03 07:26:22;;;;;;;13.50;8.60;;;28.60;77.60;;;;;;5069647;28;20379;-56
2021/09/03 07:28:47;;;;;;;12.80;8.40;;;28.30;77.20;;;;;;5068222;28;21043;-56
2021/09/03 07:31:13;;;;;;;13.35;8.90;;;28.00;78.00;;;;;;5069095;28;20773;-56
2021/09/03 07:33:39;;;;;;;14.38;8.93;;;28.20;79.10;;;;;;5068754;28;20392;-55
2021/09/03 07:36:04;;;;;;;14.33;9.60;;;28.20;77.80;;;;;;5068813;28;20471;-56
2021/09/03 07:38:31;;;;;;;14.20;10.80;;;28.20;77.40;;;;;;5068523;28;20395;-59
2021/09/03 07:40:57;;;;;;;15.68;9.68;;;29.10;77.90;;;;;;5069197;28;20391;-59
2021/09/03 07:43:22;;;;;;;15.48;10.00;;;29.00;77.80;;;;;;5069368;28;20885;-60
2021/09/03 07:45:48;;;;;;;15.60;9.80;;;29.80;75.00;;;;;;5068251;28;20410;-60
2021/09/03 07:48:14;;;;;;;15.50;9.75;;;29.40;75.70;;;;;;5069395;28;20514;-61
2021/09/03 07:50:39;;;;;;;14.85;10.00;;;30.20;72.90;;;;;;5068255;28;20387;-61
2021/09/03 07:53:06;;;;;;;17.25;9.77;;;30.70;71.60;;;;;;5068740;28;20445;-61
2021/09/03 07:55:33;;;;;;;17.00;10.15;;;31.00;69.40;;;;;;5068087;28;20376;-58
2021/09/03 07:58:01;;;;;;;13.98;9.25;;;31.50;68.20;;;;;;5067178;28;20398;-58
2021/09/03 08:00:27;;;;;;;15.30;10.10;;;31.80;67.30;;;;;;5069043;28;20443;-61
2021/09/03 08:02:52;;;;;;;15.90;10.60;;;31.50;65.90;;;;;;5068557;28;20880;-61
2021/09/03 08:05:18;;;;;;;15.20;10.40;;;31.20;66.00;;;;;;5068418;28;20563;-59
2021/09/03 08:07:44;;;;;;;15.18;10.10;;;32.00;65.10;;;;;;5067817;28;20514;-58
2021/09/03 08:10:12;;;;;;;13.60;10.40;;;31.20;65.40;;;;;;5068692;28;20516;-60
2021/09/03 08:12:38;;;;;;;15.57;10.23;;;31.40;64.00;;;;;;5067847;28;20388;-58
2021/09/03 08:15:06;;;;;;;16.60;10.90;;;31.40;63.50;;;;;;5068518;28;20474;-61
2021/09/03 08:17:33;;;;;;;15.00;10.45;;;30.90;65.10;;;;;;5067388;28;20391;-58
2021/09/03 08:19:58;;;;;;;16.50;10.05;;;31.70;61.30;;;;;;5068539;28;20861;-59
2021/09/03 08:22:24;;;;;;;15.27;9.80;;;32.50;59.80;;;;;;5066977;28;20399;-58
2021/09/03 08:24:50;;;;;;;14.27;10.30;;;31.90;61.10;;;;;;5071840;28;20438;-59
2021/09/03 08:27:15;;;;;;;14.60;10.13;;;32.00;60.60;;;;;;5072800;28;20407;-60
2021/09/03 08:29:43;;;;;;;15.57;9.60;;;31.50;63.00;;;;;;5072042;28;20383;-60
2021/09/03 08:32:09;;;;;;;13.85;9.82;;;31.40;62.50;;;;;;5072467;28;20375;-60
2021/09/03 08:34:34;;;;;;;14.27;10.15;;;31.40;61.80;;;;;;5071193;28;20382;-60
2021/09/03 08:37:00;;;;;;;13.57;9.80;;;31.70;59.60;;;;;;5072545;28;20464;-60
2021/09/03 08:39:26;;;;;;;15.40;10.60;;;32.00;60.00;;;;;;5072335;28;20383;-60
2021/09/03 08:41:52;;;;;;;13.37;9.90;;;32.10;60.00;;;;;;5071138;28;20384;-60
2021/09/03 08:44:18;;;;;;;14.93;10.15;;;33.30;58.50;;;;;;5071885;28;20888;-60
2021/09/03 08:46:45;;;;;;;13.27;9.63;;;32.80;58.70;;;;;;5071237;28;20401;-60
2021/09/03 08:49:11;;;;;;;14.13;10.00;;;33.70;56.60;;;;;;5071618;28;20388;-60
2021/09/03 08:51:37;;;;;;;13.32;8.95;;;33.90;55.80;;;;;;5069565;28;20391;-60
2021/09/03 08:54:03;;;;;;;14.70;9.38;;;33.50;56.20;;;;;;5071671;28;20887;-60
2021/09/03 08:56:29;;;;;;;13.13;8.30;;;33.00;57.50;;;;;;5071665;28;20846;-60
2021/09/03 08:58:55;;;;;;;14.60;8.68;;;33.10;57.30;;;;;;5071417;28;20389;-59
2021/09/03 09:01:21;;;;;;;15.80;10.20;;;33.40;57.30;;;;;;5071566;28;20416;-59
2021/09/03 09:03:48;;;;;;;13.07;9.30;;;33.60;55.50;;;;;;5070797;28;20407;-58
2021/09/03 09:06:32;;;;;;;18.00;10.70;;;34.40;54.70;;;;;;5071353;28;20395;-61
2021/09/03 09:09:03;;;;;;;12.40;8.57;;;33.70;55.30;;;;;;5071850;28;20399;-59
2021/09/03 09:11:31;;;;;;;11.80;8.70;;;33.50;55.60;;;;;;5071680;28;20387;-59
2021/09/03 09:13:59;;;;;;;13.03;7.83;;;32.50;57.00;;;;;;5071124;28;20479;-62
2021/09/03 09:16:30;;;;;;;11.82;8.13;;;32.70;57.20;;;;;;5071033;28;20468;-61
2021/09/03 09:19:00;;;;;;;14.02;7.80;;;33.00;55.40;;;;;;5070995;28;20442;-59
2021/09/03 09:21:33;;;;;;;14.02;8.75;;;33.10;55.70;;;;;;5071177;28;20372;-61
2021/09/03 09:24:01;;;;;;;13.00;7.93;;;32.30;56.30;;;;;;5071079;28;20407;-61
2021/09/03 09:26:44;;;;;;;13.35;8.60;;;32.00;56.70;;;;;;5070844;28;20391;-60
2021/09/03 09:29:39;;;;;;;12.40;7.97;;;33.10;56.20;;;;;;5070979;28;20387;-60
2021/09/03 09:32:09;;;;;;;12.20;8.07;;;33.60;54.80;;;;;;5066254;28;20396;-61
2021/09/03 09:34:37;;;;;;;12.50;7.83;;;34.60;54.40;;;;;;5069800;28;20380;-61
2021/09/03 09:37:07;;;;;;;10.95;7.18;;;34.50;54.00;;;;;;5069792;28;20877;-62
2021/09/03 09:39:52;;;;;;;12.70;6.83;;;34.70;51.90;;;;;;5070604;28;20384;-59
2021/09/03 09:42:23;;;;;;;11.40;6.80;;;34.70;52.00;;;;;;5071009;28;20718;-61
2021/09/03 09:45:11;;;;;;;11.70;6.80;;;34.40;52.30;;;;;;5069960;28;20911;-60
2021/09/03 09:47:38;;;;;;;11.30;6.60;;;33.90;51.90;;;;;;5069503;28;20839;-59
2021/09/03 09:50:32;;;;;;;10.95;7.82;;;34.00;52.20;;;;;;5070616;28;20806;-60
2021/09/03 09:53:08;;;;;;;12.68;11.48;;;33.50;51.20;;;;;;5070438;28;20372;-60
2021/09/03 09:55:35;;;;;;;10.77;9.68;;;32.30;52.80;;;;;;5069690;28;20372;-59
2021/09/03 09:58:01;;;;;;;12.10;10.05;;;32.30;54.00;;;;;;5070429;28;20433;-60
2021/09/03 10:00:28;;;;;;;12.88;10.32;;;32.80;53.20;;;;;;5070568;28;20756;-61
2021/09/03 10:02:54;;;;;;;12.90;11.60;;;32.10;52.40;;;;;;5069895;28;20372;-61
2021/09/03 10:05:20;;;;;;;11.90;10.15;;;30.80;55.00;;;;;;5070795;28;20438;-60
2021/09/03 10:07:47;;;;;;;12.30;11.00;;;30.20;57.70;;;;;;5069785;28;20380;-62
2021/09/03 10:10:13;;;;;;;13.63;12.32;;;31.00;57.90;;;;;;5069898;28;20391;-61
2021/09/03 10:12:39;;;;;;;12.57;11.18;;;31.40;55.60;;;;;;5069482;28;20885;-62
2021/09/03 10:15:06;;;;;;;13.52;11.35;;;31.80;55.50;;;;;;5069933;28;20399;-60
2021/09/03 10:17:32;;;;;;;12.45;10.80;;;32.50;54.60;;;;;;5069977;28;20497;-60
2021/09/03 10:19:59;;;;;;;13.48;10.70;;;32.80;53.70;;;;;;5069839;28;20497;-60
2021/09/03 10:22:24;;;;;;;11.25;10.05;;;33.00;53.60;;;;;;5069819;28;20379;-61
2021/09/03 10:25:06;;;;;;;12.02;10.82;;;33.20;53.90;;;;;;5069437;28;20473;-60
2021/09/03 10:27:31;;;;;;;11.80;7.40;;;33.10;53.20;;;;;;5069335;28;20394;-59
2021/09/03 10:30:10;;;;;;;12.33;11.13;;;33.40;53.90;;;;;;5070080;28;20380;-61
2021/09/03 10:32:36;;;;;;;12.50;9.83;;;32.50;53.40;;;;;;5069287;28;20387;-59
2021/09/03 10:35:12;;;;;;;11.75;10.55;;;32.10;53.00;;;;;;5070202;28;20471;-60
2021/09/03 10:37:38;;;;;;;13.00;11.70;;;31.30;54.40;;;;;;5069237;28;20446;-61
2021/09/03 10:40:06;;;;;;;14.43;11.10;;;31.00;55.10;;;;;;5069821;28;20478;-60
2021/09/03 10:45:11;;;;;;;11.75;10.30;;;29.60;58.30;;;;;;5069440;28;20431;-61
2021/09/03 10:48:03;;;;;;;11.68;6.65;;;29.10;59.90;;;;;;5068360;28;20397;-61
2021/09/03 10:50:50;;;;;;;10.20;6.43;;;29.10;58.10;;;;;;5069867;28;20383;-60
2021/09/03 10:53:22;;;;;;;10.57;6.60;;;28.70;59.40;;;;;;5069789;28;20384;-60
2021/09/03 10:56:17;;;;;;;10.47;6.00;;;28.20;60.00;;;;;;5068759;28;20449;-59
2021/09/03 10:58:56;;;;;;;11.07;6.05;;;28.00;61.50;;;;;;5068033;28;20486;-60
2021/09/03 11:01:25;;;;;;;11.30;6.47;;;27.80;63.30;;;;;;5069628;28;20387;-59
2021/09/03 11:04:04;;;;;;;12.85;6.00;;;27.70;63.80;;;;;;5068078;28;21292;-60
2021/09/03 11:06:32;;;;;;;10.40;6.67;;;28.10;62.90;;;;;;5061154;28;20445;-59
2021/09/03 11:09:00;;;;;;;10.25;6.05;;;28.20;64.20;;;;;;5055710;28;20400;-60
2021/09/03 11:11:30;;;;;;;12.77;6.32;;;28.70;62.20;;;;;;5049736;28;20440;-60
2021/09/03 11:14:15;;;;;;;11.95;8.27;;;28.90;60.80;;;;;;5048903;28;20436;-59
2021/09/03 11:16:46;;;;;;;11.63;7.60;;;29.10;60.90;;;;;;5048393;28;20441;-58
2021/09/03 11:19:12;;;;;;;12.50;6.20;;;28.90;61.50;;;;;;5054383;28;20396;-60
2021/09/03 11:21:49;;;;;;;12.20;6.25;;;28.80;62.70;;;;;;5066647;28;20407;-59
2021/09/03 11:24:18;;;;;;;11.40;5.80;;;28.90;62.60;;;;;;5068486;28;20404;-59
2021/09/03 11:26:44;;;;;;;10.70;6.25;;;28.70;61.50;;;;;;5065838;28;20388;-58
2021/09/03 11:29:29;;;;;;;11.43;5.80;;;28.30;61.90;;;;;;5049415;28;20369;-59
2021/09/03 11:32:15;;;;;;;10.00;5.75;;;27.50;65.40;;;;;;5063167;28;20376;-60
2021/09/03 11:35:00;;;;;;;9.77;6.05;;;27.30;68.20;;;;;;5067969;28;20628;-60
2021/09/03 11:37:33;;;;;;;11.82;6.57;;;27.00;66.10;;;;;;5062404;28;20451;-60
2021/09/03 11:40:13;;;;;;;10.40;6.40;;;26.80;65.90;;;;;;5062377;28;20394;-60
2021/09/03 11:42:49;;;;;;;10.23;5.72;;;26.70;68.50;;;;;;5067713;28;20383;-60
2021/09/03 11:45:33;;;;;;;11.50;6.20;;;25.70;68.20;;;;;;5068531;28;20406;-60
2021/09/03 11:48:02;;;;;;;9.23;5.75;;;27.40;65.80;;;;;;5067600;28;20442;-61
2021/09/03 11:50:29;;;;;;;10.00;5.95;;;27.40;66.80;;;;;;5063369;28;20423;-61
2021/09/03 11:52:57;;;;;;;10.43;5.40;;;27.70;67.80;;;;;;5064464;28;20376;-58
2021/09/03 11:55:24;;;;;;;9.48;5.47;;;27.90;66.20;;;;;;5065807;28;20419;-59
2021/09/03 11:57:49;;;;;;;12.10;6.50;;;28.10;66.60;;;;;;5063144;28;20477;-57
2021/09/03 12:00:21;;;;;;;11.40;6.10;;;27.90;63.80;;;;;;5067677;28;20423;-57
2021/09/03 12:02:48;;;;;;;10.85;6.40;;;27.40;68.30;;;;;;5069262;28;20501;-57
2021/09/03 12:05:14;;;;;;;9.52;6.20;;;27.50;67.80;;;;;;5058618;28;20440;-58
2021/09/03 12:07:41;;;;;;;9.35;5.93;;;27.50;68.50;;;;;;5051013;28;20389;-57
2021/09/03 12:10:07;;;;;;;10.95;6.95;;;27.20;66.70;;;;;;5068866;28;20391;-57
2021/09/03 12:12:33;;;;;;;9.75;5.70;;;27.30;67.70;;;;;;5066569;28;20388;-57
2021/09/03 12:15:02;;;;;;;11.05;6.50;;;26.60;67.80;;;;;;5067821;28;20388;-57
2021/09/03 12:17:39;;;;;;;9.83;5.90;;;27.30;68.40;;;;;;5057881;28;20470;-56
2021/09/03 12:20:13;;;;;;;10.00;5.60;;;27.70;66.40;;;;;;5055416;28;20385;-55
2021/09/03 12:22:50;;;;;;;9.35;5.60;;;27.80;66.30;;;;;;5065430;28;20432;-56
2021/09/03 12:25:16;;;;;;;9.45;5.50;;;27.80;65.90;;;;;;5066366;28;20534;-55
2021/09/03 12:27:42;;;;;;;10.90;6.00;;;27.80;66.80;;;;;;5051530;28;20472;-56
2021/09/03 12:30:13;;;;;;;8.75;4.95;;;27.80;64.60;;;;;;5052450;28;20863;-57
2021/09/03 12:32:39;;;;;;;9.90;6.30;;;27.50;65.90;;;;;;5052028;28;20851;-57
2021/09/03 12:35:10;;;;;;;11.20;6.43;;;27.60;67.40;;;;;;5057802;28;20386;-57